San Antonio Airport

BR-0126 · 戈亚斯州, 巴西

METAR BR-0126 · San Antonio Airport

使用的METAR站距离机场128 km。
罗盘
风向 的 风向 340°
风: 6 kt, 2 beaufort

添加一条跑道以查看侧风和逆风信息。

添置 跑道
0 ft 1.000 2.000 3.000 4.000 5.000
Cloud Cloud
FEW 2.000
METAR SBGO 281300Z 34006KT 9999 FEW020 28/19 Q1018

METAR San Antonio Airport - BR-0126

San Antonio Airport是,巴西中的小机场。 该机场位于纬度-16,54761和经度-50,41849。 这个机场没有ICAO代码,我们使用BR-0126作为参考。 机场在Brasilia FIR中。

该航空气象观测是针对Santa Genoveva Airport在2024年2月28日 10:00, 当地时间进行的。

机场观察

风向为340°,速度为6 kt。

可见度为10 km 或者更多。

有几云在2.000 ft的高度。 没有观察到天花板。

温度和风寒是28 °C。 热指数为29。 露点为19 °C,相对湿度为58%。 海平面上的气压为1018 hPa (QNH)。

白天

今天,太阳从06:21升起,在18:47降落。 这适用于San Antonio Airport,世界夏令时可能有所不同。 当地时间与世界标准时间之间的时差为-3 小时。 当前,没有夏令时有效。

公司介绍

我们没有关于这个机场的公司信息。

体会

到Vliegles.nl去找飞行课程,跳伞和其他飞行体验。 浏览页面,了解San Antonio Airport附近所有可用的活动。 你也可以使用搜索功能来寻找你所在地附近的特定飞行课程、跳伞或其他飞行体验。

乌云

2.000 ft FEW 几云

温度 & 天气

温度 28 °C
露点 19 °C
相对湿度 58%
热度指数 29 °C
Kp-index 0 (0-9)

白天

日出
06:16
中午
12:29
日落
18:42 (8:39)

小工具

你想在你的网站上有一个关于San Antonio Airport的当前航空天气(METAR)的小部件吗?

显示HTML代码
?>